Time;durP1;ratioP1;P1;durP2;ratioP2;P2;SDS_P1;SDS_P2;PMS_P1;PMS_P2;Temp;Humidity;BMP_temperature;BMP_pressure;BME280_temperature;BME280_humidity;BME280_pressure;Samples;Min_cycle;Max_cycle;Signal;HPM_P1;HPM_P2
2022/09/20 00:00:03;;;;;;;6.90;1.95;;;8.20;99.90;;;;;;5082610;28;20044;-62
2022/09/20 00:02:30;;;;;;;8.32;1.75;;;8.20;99.90;;;;;;5081482;28;20114;-62
2022/09/20 00:04:55;;;;;;;5.22;1.65;;;8.00;99.90;;;;;;5073524;28;20052;-62
2022/09/20 00:07:21;;;;;;;5.63;1.30;;;8.00;99.90;;;;;;5080393;28;20044;-61
2022/09/20 00:09:46;;;;;;;4.53;1.40;;;7.90;99.90;;;;;;5087541;28;20044;-61
2022/09/20 00:12:12;;;;;;;7.03;1.70;;;7.80;99.90;;;;;;5080350;28;20793;-62
2022/09/20 00:14:38;;;;;;;8.57;2.25;;;7.80;99.90;;;;;;5083011;28;20032;-61
2022/09/20 00:17:03;;;;;;;10.32;1.83;;;7.80;99.90;;;;;;5076243;28;20052;-61
2022/09/20 00:19:29;;;;;;;7.25;1.75;;;7.70;99.90;;;;;;5079301;28;20106;-61
2022/09/20 00:21:54;;;;;;;7.07;1.65;;;7.70;99.90;;;;;;5081249;28;20044;-62
2022/09/20 00:24:20;;;;;;;7.88;1.67;;;7.70;99.90;;;;;;5073168;28;20041;-61
2022/09/20 00:26:45;;;;;;;5.28;1.50;;;7.70;99.90;;;;;;5084938;28;20064;-61
2022/09/20 00:29:12;;;;;;;5.10;1.20;;;7.70;99.90;;;;;;5088614;28;20134;-61
2022/09/20 00:31:40;;;;;;;7.03;1.40;;;7.60;99.90;;;;;;5084796;28;20066;-61
2022/09/20 00:36:51;;;;;;;8.60;1.50;;;7.60;99.90;;;;;;5077448;28;20185;-62
2022/09/20 00:39:17;;;;;;;6.72;1.58;;;7.50;99.90;;;;;;5086161;28;20496;-61
2022/09/20 00:41:42;;;;;;;5.93;1.80;;;7.50;99.90;;;;;;5076065;28;20518;-61
2022/09/20 00:44:44;;;;;;;6.15;1.73;;;7.40;99.90;;;;;;5082962;28;20032;-62
2022/09/20 00:47:28;;;;;;;9.70;1.60;;;7.40;99.90;;;;;;5083212;28;20399;-61
2022/09/20 00:50:34;;;;;;;7.40;1.38;;;7.30;99.90;;;;;;5091395;28;20418;-61
2022/09/20 00:53:06;;;;;;;5.15;1.60;;;7.30;99.90;;;;;;5089757;28;20039;-60
2022/09/20 00:55:33;;;;;;;5.20;1.27;;;7.20;99.90;;;;;;5088731;28;20099;-62
2022/09/20 00:58:00;;;;;;;6.43;1.70;;;7.20;99.90;;;;;;5090291;28;20637;-61
2022/09/20 01:00:26;;;;;;;9.07;1.95;;;7.20;99.90;;;;;;5084675;28;20051;-62
2022/09/20 01:02:57;;;;;;;5.15;1.40;;;7.20;99.90;;;;;;5081231;28;20500;-61
2022/09/20 01:05:23;;;;;;;7.07;1.98;;;7.10;99.90;;;;;;5084652;28;20044;-62
2022/09/20 01:07:50;;;;;;;4.93;1.25;;;7.20;99.90;;;;;;5085463;28;20040;-61
2022/09/20 01:10:15;;;;;;;11.45;1.92;;;7.20;99.90;;;;;;5084454;28;20106;-61
2022/09/20 01:12:43;;;;;;;8.48;1.60;;;7.20;99.90;;;;;;5077001;28;20035;-62
2022/09/20 01:15:09;;;;;;;8.85;1.65;;;7.20;99.90;;;;;;5082789;28;20114;-62
2022/09/20 01:17:40;;;;;;;12.63;1.65;;;7.20;99.90;;;;;;5086536;28;20044;-62
2022/09/20 01:20:08;;;;;;;5.75;1.77;;;7.20;99.90;;;;;;5086298;28;20040;-61
2022/09/20 01:22:59;;;;;;;8.77;1.38;;;7.30;99.90;;;;;;5084738;28;20083;-61
2022/09/20 01:25:31;;;;;;;;;;;7.30;99.90;;;;;;5084729;28;20554;-62
2022/09/20 01:27:56;;;;;;;5.05;1.40;;;7.30;99.90;;;;;;5084951;28;19928;-62
2022/09/20 01:30:43;;;;;;;10.88;1.83;;;7.30;99.90;;;;;;5083186;28;20044;-62
2022/09/20 01:33:39;;;;;;;4.88;1.33;;;7.30;99.90;;;;;;5082210;28;20418;-62
2022/09/20 01:36:05;;;;;;;7.00;1.80;;;7.20;99.90;;;;;;5076107;28;20117;-62
2022/09/20 01:38:49;;;;;;;7.70;1.73;;;7.20;99.90;;;;;;5086757;28;20032;-61
2022/09/20 01:41:25;;;;;;;6.70;1.45;;;7.10;99.90;;;;;;5077858;28;20123;-61
2022/09/20 01:44:15;;;;;;;7.53;1.52;;;7.10;99.90;;;;;;5079506;28;20139;-61
2022/09/20 01:46:42;;;;;;;6.50;1.77;;;7.00;99.90;;;;;;5079128;28;20437;-61
2022/09/20 01:49:11;;;;;;;6.57;1.80;;;7.00;99.90;;;;;;5081705;28;20039;-62
2022/09/20 01:52:10;;;;;;;7.63;1.08;;;7.00;99.90;;;;;;5075249;28;20105;-61
2022/09/20 01:55:14;;;;;;;4.93;1.45;;;7.00;99.90;;;;;;5081033;28;20040;-62
2022/09/20 01:57:45;;;;;;;3.22;1.30;;;7.00;99.90;;;;;;5079479;28;20043;-61
2022/09/20 02:00:18;;;;;;;13.15;2.28;;;7.00;99.90;;;;;;5086547;28;20109;-61
2022/09/20 02:03:21;;;;;;;4.38;1.52;;;7.10;99.90;;;;;;5076259;28;20044;-61
2022/09/20 02:05:57;;;;;;;8.95;2.00;;;7.20;99.90;;;;;;5078882;28;20056;-61
2022/09/20 02:08:54;;;;;;;7.68;2.40;;;7.20;99.90;;;;;;5082244;28;20040;-62
2022/09/20 02:11:41;;;;;;;5.93;2.10;;;7.20;99.90;;;;;;5083410;28;20051;-61
2022/09/20 02:14:22;;;;;;;9.85;2.53;;;7.30;99.90;;;;;;5088268;28;20396;-61
2022/09/20 02:16:55;;;;;;;7.32;2.33;;;7.30;99.90;;;;;;5082734;28;20480;-62
2022/09/20 02:19:58;;;;;;;9.57;2.88;;;7.30;99.90;;;;;;5073756;28;20036;-61
2022/09/20 02:22:36;;;;;;;10.63;2.35;;;7.30;99.90;;;;;;5083157;28;20119;-62
2022/09/20 02:25:22;;;;;;;8.60;2.53;;;7.30;99.90;;;;;;5083739;28;20135;-62
2022/09/20 02:28:06;;;;;;;11.63;3.08;;;7.20;99.90;;;;;;5084160;28;20051;-61
2022/09/20 02:30:52;;;;;;;13.18;3.28;;;7.20;99.90;;;;;;5079496;28;20134;-62
2022/09/20 02:33:39;;;;;;;9.25;2.67;;;7.10;99.90;;;;;;5082398;28;20114;-62
2022/09/20 02:36:29;;;;;;;10.88;2.08;;;7.10;99.90;;;;;;5084773;28;20047;-61
2022/09/20 02:39:13;;;;;;;8.73;2.22;;;7.20;99.90;;;;;;5079043;28;20682;-61
2022/09/20 02:41:51;;;;;;;10.48;2.30;;;7.20;99.90;;;;;;5081725;28;20131;-61
2022/09/20 02:44:28;;;;;;;9.73;1.95;;;7.30;99.90;;;;;;5079321;28;20036;-62
2022/09/20 02:47:25;;;;;;;4.15;1.67;;;7.20;99.90;;;;;;5085316;28;20036;-61
2022/09/20 02:50:17;;;;;;;8.63;1.60;;;7.10;99.90;;;;;;5079153;28;20175;-62
2022/09/20 02:52:57;;;;;;;7.47;1.65;;;7.20;99.90;;;;;;5065597;28;20048;-61
2022/09/20 02:55:45;;;;;;;12.45;2.20;;;7.10;99.90;;;;;;5087198;28;20468;-61
2022/09/20 02:58:34;;;;;;;17.88;2.40;;;7.10;99.90;;;;;;5090126;28;20032;-62
2022/09/20 03:01:29;;;;;;;3.85;1.58;;;7.20;99.90;;;;;;5087111;28;20051;-61
2022/09/20 03:04:10;;;;;;;6.93;2.03;;;7.30;99.90;;;;;;5076876;28;20114;-62
2022/09/20 03:06:45;;;;;;;9.75;1.70;;;7.30;99.90;;;;;;5078819;28;20059;-61
2022/09/20 03:09:46;;;;;;;7.78;1.90;;;7.40;99.90;;;;;;5081486;28;20109;-61
2022/09/20 03:12:32;;;;;;;6.63;1.92;;;7.40;99.90;;;;;;5085367;28;20052;-62
2022/09/20 03:15:26;;;;;;;8.52;1.80;;;7.40;99.90;;;;;;5087213;28;20047;-61
2022/09/20 03:17:59;;;;;;;6.68;1.50;;;7.30;99.90;;;;;;5086668;28;20044;-62
2022/09/20 03:20:46;;;;;;;8.10;1.90;;;7.30;99.90;;;;;;5081562;28;20045;-61
2022/09/20 03:23:18;;;;;;;12.50;2.20;;;7.30;99.90;;;;;;5083871;28;20048;-62
2022/09/20 03:26:14;;;;;;;6.45;1.77;;;7.40;99.90;;;;;;5086276;28;20043;-62
2022/09/20 03:29:01;;;;;;;4.05;1.50;;;7.30;99.90;;;;;;5085295;28;20074;-61
2022/09/20 03:32:04;;;;;;;6.60;1.80;;;7.30;99.90;;;;;;5078381;28;20044;-61
2022/09/20 03:34:45;;;;;;;6.38;1.73;;;7.40;99.90;;;;;;5084992;28;20075;-61
2022/09/20 03:37:40;;;;;;;7.45;1.80;;;7.40;99.90;;;;;;5063313;28;20044;-61
2022/09/20 03:40:46;;;;;;;6.72;1.85;;;7.40;99.90;;;;;;5074881;28;20062;-61
2022/09/20 03:43:35;;;;;;;6.07;1.70;;;7.50;99.90;;;;;;5078871;28;20052;-61
2022/09/20 03:46:26;;;;;;;15.07;2.47;;;7.40;99.90;;;;;;5085172;28;20096;-61
2022/09/20 03:49:22;;;;;;;6.47;1.70;;;7.50;99.90;;;;;;5087259;28;20109;-62
2022/09/20 03:52:18;;;;;;;8.43;1.75;;;7.50;99.90;;;;;;5083710;28;20044;-61
2022/09/20 03:55:44;;;;;;;5.70;1.77;;;7.50;99.90;;;;;;5082373;28;20033;-62
2022/09/20 03:58:29;;;;;;;5.85;1.67;;;7.50;99.90;;;;;;5028728;28;20060;-61
2022/09/20 04:01:11;;;;;;;8.73;1.80;;;7.60;99.90;;;;;;5080397;28;20058;-61
2022/09/20 04:03:54;;;;;;;7.25;1.65;;;7.60;99.90;;;;;;5073421;28;20071;-62
2022/09/20 04:06:53;;;;;;;6.63;2.25;;;7.60;99.90;;;;;;5071323;28;20090;-61
2022/09/20 04:09:42;;;;;;;11.00;2.45;;;7.70;99.90;;;;;;5089322;28;20044;-61
2022/09/20 04:12:29;;;;;;;7.60;1.75;;;7.70;99.90;;;;;;5070999;28;20047;-62
2022/09/20 04:15:23;;;;;;;6.57;1.85;;;7.70;99.90;;;;;;5081950;28;20043;-61
2022/09/20 04:18:12;;;;;;;6.65;2.00;;;7.70;99.90;;;;;;5084969;28;20032;-62
2022/09/20 04:20:45;;;;;;;5.40;1.70;;;7.60;99.90;;;;;;5090829;28;20805;-61
2022/09/20 04:23:27;;;;;;;4.63;1.77;;;7.50;99.90;;;;;;5084310;28;20457;-62
2022/09/20 04:25:52;;;;;;;3.47;1.38;;;7.50;99.90;;;;;;5078351;28;20044;-61
2022/09/20 04:28:40;;;;;;;7.38;2.00;;;7.40;99.90;;;;;;5088743;28;20063;-61
2022/09/20 04:31:34;;;;;;;3.95;1.50;;;7.40;99.90;;;;;;5087115;28;20088;-61
2022/09/20 04:34:03;;;;;;;5.40;1.67;;;7.40;99.90;;;;;;5082362;28;20495;-62
2022/09/20 04:36:49;;;;;;;8.93;3.53;;;7.40;99.90;;;;;;5063806;28;20039;-61
2022/09/20 04:39:30;;;;;;;7.47;1.90;;;7.40;99.90;;;;;;5080917;28;20049;-61
2022/09/20 04:42:14;;;;;;;;;;;7.30;99.90;;;;;;5086133;28;20100;-61
2022/09/20 04:45:08;;;;;;;5.18;1.67;;;7.30;99.90;;;;;;5074688;28;20317;-61
2022/09/20 04:47:54;;;;;;;5.78;1.40;;;7.30;99.90;;;;;;5085584;28;20423;-61
2022/09/20 04:50:38;;;;;;;5.38;1.80;;;7.30;99.90;;;;;;5087864;28;20032;-61
2022/09/20 04:53:28;;;;;;;7.68;1.75;;;7.40;99.90;;;;;;5082131;28;20107;-62
2022/09/20 04:56:00;;;;;;;6.15;1.60;;;7.40;99.90;;;;;;5079258;28;20125;-62
2022/09/20 04:58:47;;;;;;;5.10;1.70;;;7.40;99.90;;;;;;5088785;28;20036;-62
2022/09/20 05:01:16;;;;;;;3.30;1.48;;;7.40;99.90;;;;;;5078646;28;20097;-61
2022/09/20 05:04:06;;;;;;;5.97;1.50;;;7.40;99.90;;;;;;5073175;28;20056;-62
2022/09/20 05:06:37;;;;;;;;;;;7.40;99.90;;;;;;5083102;28;20048;-62
2022/09/20 05:09:29;;;;;;;8.13;1.90;;;7.50;99.90;;;;;;5085442;28;19916;-61
2022/09/20 05:12:26;;;;;;;8.70;1.85;;;7.50;99.90;;;;;;5085087;28;20051;-62
2022/09/20 05:14:51;;;;;;;15.55;2.20;;;7.70;99.90;;;;;;5082049;28;20050;-61
2022/09/20 05:17:36;;;;;;;9.82;1.92;;;7.80;99.90;;;;;;5078539;28;20029;-62
2022/09/20 05:20:30;;;;;;;4.90;1.38;;;7.90;99.90;;;;;;5084157;28;20965;-61
2022/09/20 05:23:15;;;;;;;7.95;1.77;;;8.10;99.90;;;;;;5084793;28;20048;-61
2022/09/20 05:26:07;;;;;;;7.18;1.90;;;8.10;99.90;;;;;;5073766;28;20562;-61
2022/09/20 05:28:56;;;;;;;11.25;2.00;;;8.20;99.90;;;;;;5073146;28;20687;-61
2022/09/20 05:31:40;;;;;;;6.57;2.40;;;8.30;99.90;;;;;;5084187;28;20043;-61
2022/09/20 05:34:30;;;;;;;7.78;2.00;;;8.40;99.90;;;;;;5074769;28;20491;-61
2022/09/20 05:37:19;;;;;;;13.48;2.50;;;8.50;99.90;;;;;;5070506;28;20032;-61
2022/09/20 05:39:53;;;;;;;6.25;2.17;;;8.50;99.90;;;;;;5084966;28;20028;-61
2022/09/20 05:42:31;;;;;;;4.35;1.83;;;8.60;99.90;;;;;;5077650;28;20088;-61
2022/09/20 05:45:04;;;;;;;10.07;2.40;;;8.60;99.90;;;;;;5074799;28;20042;-62
2022/09/20 05:47:49;;;;;;;5.35;1.67;;;8.60;99.90;;;;;;5084094;28;20035;-61
2022/09/20 05:50:40;;;;;;;4.45;1.95;;;8.70;99.90;;;;;;5075979;28;20093;-61
2022/09/20 05:53:28;;;;;;;3.72;1.58;;;8.80;99.90;;;;;;5085133;28;20086;-61
2022/09/20 05:56:08;;;;;;;5.38;2.03;;;8.90;99.90;;;;;;5080477;28;22579;-62
2022/09/20 05:58:43;;;;;;;;;;;8.90;99.90;;;;;;5087381;28;20044;-61
2022/09/20 06:01:17;;;;;;;5.30;1.55;;;9.10;99.90;;;;;;5084123;28;19955;-61
2022/09/20 06:04:16;;;;;;;7.40;1.85;;;9.10;99.90;;;;;;5083888;28;20432;-62
2022/09/20 06:06:56;;;;;;;4.70;1.58;;;9.30;99.90;;;;;;5080841;28;20051;-62
2022/09/20 06:09:58;;;;;;;6.75;1.75;;;9.40;99.90;;;;;;5088547;28;20564;-61
2022/09/20 06:12:54;;;;;;;5.15;1.67;;;9.50;99.90;;;;;;5084303;28;20036;-61
2022/09/20 06:15:34;;;;;;;5.20;1.23;;;9.60;99.90;;;;;;5084481;28;20040;-63
2022/09/20 06:18:15;;;;;;;6.18;1.58;;;9.70;99.90;;;;;;5084624;28;20047;-63
2022/09/20 06:21:17;;;;;;;4.90;1.45;;;9.90;99.90;;;;;;5087896;28;20052;-63
2022/09/20 06:23:43;;;;;;;6.18;1.48;;;9.90;99.90;;;;;;5100660;28;20040;-62
2022/09/20 06:26:19;;;;;;;5.45;1.50;;;10.00;99.90;;;;;;5084176;28;20032;-63
2022/09/20 06:29:01;;;;;;;8.52;1.40;;;10.00;99.90;;;;;;5078289;28;20050;-62
2022/09/20 06:31:27;;;;;;;5.10;1.60;;;10.00;99.90;;;;;;5075153;28;20146;-63
2022/09/20 06:33:59;;;;;;;6.30;1.90;;;10.10;99.90;;;;;;5065164;28;20554;-62
2022/09/20 06:42:14;;;;;;;8.80;1.73;;;10.10;99.90;;;;;;5087172;28;20044;-61
2022/09/20 06:44:42;;;;;;;5.75;2.08;;;10.10;99.90;;;;;;5087313;28;20051;-62
2022/09/20 06:47:12;;;;;;;4.78;1.30;;;10.10;99.90;;;;;;5087212;28;20400;-62
2022/09/20 06:49:40;;;;;;;4.00;1.30;;;10.20;99.90;;;;;;5085660;28;20040;-61
2022/09/20 06:52:06;;;;;;;7.50;1.50;;;10.20;99.90;;;;;;5085437;28;20040;-62
2022/09/20 06:54:32;;;;;;;5.32;1.60;;;10.20;99.90;;;;;;5087667;28;20032;-62
2022/09/20 06:57:02;;;;;;;7.93;1.80;;;10.10;99.90;;;;;;5085679;28;20032;-62
2022/09/20 06:59:27;;;;;;;8.05;2.20;;;10.10;99.90;;;;;;5089734;28;20031;-62
2022/09/20 07:01:53;;;;;;;4.38;1.60;;;10.00;99.90;;;;;;5085983;28;20612;-62
2022/09/20 07:04:18;;;;;;;6.97;1.60;;;10.30;99.90;;;;;;5086246;28;20169;-62
2022/09/20 07:06:44;;;;;;;5.28;1.50;;;10.80;99.90;;;;;;5088007;28;20105;-62
2022/09/20 07:09:10;;;;;;;7.28;1.65;;;11.10;99.90;;;;;;5086154;28;20153;-63
2022/09/20 07:11:36;;;;;;;5.30;1.42;;;11.60;99.90;;;;;;5084175;28;20525;-63
2022/09/20 07:14:02;;;;;;;5.63;1.38;;;12.00;99.90;;;;;;5083728;28;20039;-62
2022/09/20 07:16:28;;;;;;;6.40;1.23;;;12.40;99.90;;;;;;5086300;28;20043;-62
2022/09/20 07:18:55;;;;;;;6.15;1.63;;;12.80;99.90;;;;;;5084133;28;20058;-64
2022/09/20 07:21:21;;;;;;;3.40;1.20;;;13.30;99.90;;;;;;5085754;28;20097;-63
2022/09/20 07:23:48;;;;;;;5.35;1.27;;;13.80;99.90;;;;;;5088391;28;21055;-62
2022/09/20 07:26:29;;;;;;;4.25;1.05;;;14.40;99.90;;;;;;5084656;28;20109;-63
2022/09/20 07:28:55;;;;;;;4.65;1.13;;;14.60;99.90;;;;;;5091620;28;20032;-63
2022/09/20 07:31:23;;;;;;;3.45;0.77;;;14.90;99.90;;;;;;5095343;28;20090;-63
2022/09/20 07:33:50;;;;;;;3.47;0.90;;;15.10;99.90;;;;;;5091588;28;20101;-63
2022/09/20 07:36:16;;;;;;;4.85;1.05;;;15.10;99.90;;;;;;5084970;28;20491;-62
2022/09/20 07:38:45;;;;;;;4.75;0.70;;;15.10;99.90;;;;;;5082706;28;20044;-62
2022/09/20 07:41:11;;;;;;;5.55;0.80;;;14.90;99.90;;;;;;5082807;28;20077;-63
2022/09/20 07:43:37;;;;;;;5.32;0.98;;;14.70;99.90;;;;;;5088708;28;20049;-62
2022/09/20 07:46:03;;;;;;;7.25;1.27;;;14.50;99.90;;;;;;5082106;28;20045;-62
2022/09/20 07:48:31;;;;;;;3.13;0.80;;;14.50;99.90;;;;;;5089332;28;20055;-62
2022/09/20 07:51:01;;;;;;;2.88;0.70;;;14.40;99.90;;;;;;5093758;28;20441;-62
2022/09/20 07:53:27;;;;;;;4.72;0.80;;;14.40;99.90;;;;;;5090412;28;20410;-63
2022/09/20 07:56:01;;;;;;;4.63;0.70;;;14.40;99.90;;;;;;5093730;28;20032;-63
2022/09/20 07:58:28;;;;;;;5.60;0.73;;;14.20;99.90;;;;;;5092543;28;20403;-63
2022/09/20 08:00:56;;;;;;;4.43;0.73;;;14.00;99.90;;;;;;5091423;28;20081;-63
2022/09/20 08:03:22;;;;;;;2.10;0.57;;;13.80;99.90;;;;;;5086801;28;20133;-63
2022/09/20 08:05:49;;;;;;;1.30;0.57;;;13.60;99.90;;;;;;5087104;28;20209;-62
2022/09/20 08:08:18;;;;;;;3.92;0.50;;;13.50;99.90;;;;;;5082282;28;20059;-63
2022/09/20 08:10:44;;;;;;;3.10;0.70;;;13.40;99.90;;;;;;5084291;28;20455;-63
2022/09/20 08:13:13;;;;;;;3.65;0.60;;;13.40;99.90;;;;;;5082460;28;20081;-63
2022/09/20 08:15:39;;;;;;;2.58;0.50;;;13.30;99.90;;;;;;5090074;28;20081;-63
2022/09/20 08:18:07;;;;;;;3.67;0.57;;;13.40;99.90;;;;;;5091036;28;20459;-63
2022/09/20 08:20:35;;;;;;;2.85;0.50;;;13.40;99.90;;;;;;5089455;28;20036;-64
2022/09/20 08:23:02;;;;;;;4.90;0.80;;;13.50;99.90;;;;;;5064531;28;20060;-63
2022/09/20 08:25:28;;;;;;;4.50;0.65;;;13.60;99.90;;;;;;5078812;28;20048;-63
2022/09/20 08:27:54;;;;;;;3.40;0.52;;;13.70;99.90;;;;;;5073670;28;20048;-63
2022/09/20 08:30:19;;;;;;;4.80;0.65;;;13.90;99.90;;;;;;5048490;28;20122;-63
2022/09/20 08:32:45;;;;;;;1.67;0.40;;;14.00;99.90;;;;;;5049304;28;20495;-63
2022/09/20 08:35:10;;;;;;;2.55;0.60;;;14.10;99.90;;;;;;5075395;28;20460;-64
2022/09/20 08:37:36;;;;;;;2.78;0.30;;;14.30;99.90;;;;;;5087792;28;20784;-63
2022/09/20 08:40:03;;;;;;;2.03;0.35;;;14.40;99.90;;;;;;5079884;28;20048;-63
2022/09/20 08:42:35;;;;;;;1.67;0.50;;;14.50;99.90;;;;;;5075729;28;20044;-62
2022/09/20 08:45:04;;;;;;;1.95;0.45;;;14.50;99.90;;;;;;5074913;28;20041;-63
2022/09/20 08:47:43;;;;;;;3.20;0.60;;;14.50;99.90;;;;;;5072482;28;20744;-63
2022/09/20 08:50:13;;;;;;;2.45;0.60;;;14.60;99.90;;;;;;5072778;28;20072;-63
2022/09/20 08:52:40;;;;;;;2.25;0.60;;;14.60;99.90;;;;;;5074365;28;20114;-63
2022/09/20 08:55:17;;;;;;;4.25;0.80;;;14.70;99.90;;;;;;5076777;28;20110;-63
2022/09/20 08:57:48;;;;;;;4.22;0.60;;;14.80;99.90;;;;;;5071671;28;20040;-63
2022/09/20 09:00:17;;;;;;;4.22;0.50;;;14.90;99.90;;;;;;5083247;28;20097;-63
2022/09/20 09:02:44;;;;;;;3.65;0.88;;;15.00;99.90;;;;;;5077908;28;20101;-63
2022/09/20 09:05:30;;;;;;;1.98;0.40;;;15.00;99.90;;;;;;5073355;28;20447;-63
2022/09/20 09:07:59;;;;;;;3.35;0.40;;;15.00;99.90;;;;;;5081192;28;20434;-63
2022/09/20 09:10:27;;;;;;;1.75;0.68;;;14.80;99.90;;;;;;5075107;28;20052;-63
2022/09/20 09:12:54;;;;;;;2.92;0.40;;;14.90;99.90;;;;;;5083295;28;20032;-63
2022/09/20 09:15:28;;;;;;;3.67;0.60;;;14.90;99.90;;;;;;5077144;28;20064;-64
2022/09/20 09:17:55;;;;;;;3.55;0.60;;;14.80;99.90;;;;;;5080151;28;20044;-64
2022/09/20 09:20:22;;;;;;;3.67;0.47;;;15.00;99.90;;;;;;5083163;28;20490;-63
2022/09/20 09:22:59;;;;;;;3.78;0.55;;;15.00;99.90;;;;;;5081913;28;20049;-63
2022/09/20 09:25:36;;;;;;;1.88;0.40;;;15.10;99.90;;;;;;5081027;28;20036;-64
2022/09/20 09:28:06;;;;;;;2.67;0.60;;;15.20;99.90;;;;;;5078470;28;20050;-63
2022/09/20 09:30:39;;;;;;;2.75;0.60;;;15.20;99.90;;;;;;5080288;28;20071;-63
2022/09/20 09:33:23;;;;;;;7.95;0.82;;;15.30;99.90;;;;;;5082805;28;20036;-64
2022/09/20 09:36:19;;;;;;;6.22;0.70;;;15.30;99.90;;;;;;5082132;28;20040;-64
2022/09/20 09:38:45;;;;;;;1.85;0.30;;;15.50;99.90;;;;;;5079409;28;20059;-63
2022/09/20 09:41:19;;;;;;;4.15;0.70;;;15.40;99.90;;;;;;5072367;28;20037;-63
2022/09/20 09:44:09;;;;;;;5.75;0.70;;;15.30;99.90;;;;;;5080829;28;20181;-63
2022/09/20 09:46:36;;;;;;;2.63;0.52;;;15.60;99.90;;;;;;5078988;28;20040;-63
2022/09/20 09:49:11;;;;;;;4.95;0.80;;;15.90;99.90;;;;;;5079679;28;20044;-64
2022/09/20 09:51:37;;;;;;;2.38;0.68;;;16.20;99.90;;;;;;5079206;28;20043;-63
2022/09/20 09:54:04;;;;;;;6.28;0.80;;;16.40;99.90;;;;;;5075507;28;20115;-63
2022/09/20 09:56:50;;;;;;;6.75;0.77;;;16.80;99.90;;;;;;5075925;28;20044;-63
2022/09/20 09:59:27;;;;;;;6.32;0.88;;;16.90;99.90;;;;;;5083220;28;20118;-63
2022/09/20 10:02:05;;;;;;;5.38;1.85;;;16.70;99.90;;;;;;5071974;28;20046;-63
2022/09/20 10:04:56;;;;;;;3.60;0.70;;;16.50;99.90;;;;;;5070573;28;20110;-63
2022/09/20 10:07:31;;;;;;;4.43;0.80;;;16.50;99.90;;;;;;5070521;28;20054;-63
2022/09/20 10:10:36;;;;;;;4.82;0.95;;;16.30;99.90;;;;;;5072331;28;20040;-64
2022/09/20 10:13:02;;;;;;;3.65;1.00;;;16.20;99.90;;;;;;5070992;28;20119;-64
2022/09/20 10:15:40;;;;;;;3.42;1.00;;;16.10;99.90;;;;;;5069758;28;20448;-63
2022/09/20 10:18:24;;;;;;;8.13;1.50;;;16.10;99.90;;;;;;5083801;28;20032;-64
2022/09/20 10:21:02;;;;;;;2.38;0.77;;;16.30;99.90;;;;;;5084448;28;20036;-62
2022/09/20 10:23:55;;;;;;;3.35;0.88;;;16.30;99.90;;;;;;5072525;28;20119;-64
2022/09/20 10:26:53;;;;;;;1.73;0.50;;;16.50;99.90;;;;;;5075546;28;20039;-63
2022/09/20 10:29:46;;;;;;;4.28;0.43;;;16.60;99.90;;;;;;5077757;28;20644;-64
2022/09/20 10:32:26;;;;;;;3.08;0.70;;;16.80;99.90;;;;;;5082730;28;20152;-63
2022/09/20 10:35:44;;;;;;;2.35;0.75;;;17.00;99.90;;;;;;5085988;28;20042;-64
2022/09/20 10:38:25;;;;;;;3.45;0.60;;;17.40;99.90;;;;;;5080200;28;20095;-63
2022/09/20 10:44:30;;;;;;;3.00;0.85;;;17.70;99.90;;;;;;5085097;28;20036;-63
2022/09/20 10:47:12;;;;;;;3.50;0.75;;;17.70;99.90;;;;;;5079024;28;20123;-64
2022/09/20 10:49:56;;;;;;;3.75;0.82;;;17.60;99.90;;;;;;5075715;28;20490;-64
2022/09/20 10:52:37;;;;;;;2.38;0.43;;;17.50;99.90;;;;;;5078783;28;20430;-64
2022/09/20 10:55:10;;;;;;;;;;;17.50;99.90;;;;;;5074080;28;20036;-63
2022/09/20 10:57:54;;;;;;;2.08;0.65;;;17.60;99.90;;;;;;5081577;28;19920;-63
2022/09/20 11:00:25;;;;;;;0.90;0.52;;;17.70;99.90;;;;;;5074351;28;20485;-63
2022/09/20 11:02:53;;;;;;;;;;;17.60;99.90;;;;;;5078888;28;20387;-64
2022/09/20 11:05:40;;;;;;;3.58;0.70;;;17.60;99.90;;;;;;5073209;28;20333;-64
2022/09/20 11:08:14;;;;;;;3.17;0.57;;;17.60;99.90;;;;;;5079662;28;20570;-64
2022/09/20 11:10:51;;;;;;;4.22;0.40;;;17.60;99.90;;;;;;5082275;28;20079;-63
2022/09/20 11:13:23;;;;;;;1.73;0.40;;;17.40;99.90;;;;;;5078958;28;20442;-63
2022/09/20 11:16:14;;;;;;;1.92;0.70;;;17.40;99.90;;;;;;5079532;28;20046;-63
2022/09/20 11:18:58;;;;;;;4.65;0.90;;;17.30;99.10;;;;;;5083276;28;20507;-64
2022/09/20 11:21:45;;;;;;;3.70;0.68;;;17.20;98.80;;;;;;5083608;28;20040;-63
2022/09/20 11:24:19;;;;;;;4.30;0.93;;;17.00;99.80;;;;;;5076095;28;20047;-63
2022/09/20 11:26:51;;;;;;;2.75;0.80;;;17.00;99.90;;;;;;5079691;28;20041;-63
2022/09/20 11:29:41;;;;;;;3.38;0.90;;;17.00;99.30;;;;;;5083884;28;20039;-63
2022/09/20 11:32:16;;;;;;;3.90;0.70;;;17.00;99.80;;;;;;5073815;28;20036;-63
2022/09/20 11:34:54;;;;;;;3.95;0.50;;;17.20;98.40;;;;;;5083745;28;20807;-63
2022/09/20 11:37:23;;;;;;;5.22;0.70;;;17.30;99.00;;;;;;5080156;28;20040;-63
2022/09/20 11:39:58;;;;;;;3.17;0.70;;;17.50;98.70;;;;;;5087471;28;20177;-64
2022/09/20 11:42:28;;;;;;;4.90;0.75;;;17.50;98.80;;;;;;5075979;28;20028;-64
2022/09/20 11:44:54;;;;;;;3.38;0.70;;;17.40;97.30;;;;;;5078821;28;20077;-64
2022/09/20 11:47:45;;;;;;;4.10;0.77;;;17.40;98.40;;;;;;5074310;28;20484;-64
2022/09/20 11:50:55;;;;;;;3.10;0.73;;;17.60;98.00;;;;;;5082717;28;20059;-64
2022/09/20 11:53:51;;;;;;;2.27;0.50;;;17.70;98.00;;;;;;5064423;28;20048;-64
2022/09/20 11:56:21;;;;;;;4.30;0.70;;;17.80;95.10;;;;;;5071053;28;20048;-64
2022/09/20 11:58:50;;;;;;;1.05;0.47;;;17.80;96.90;;;;;;5077377;28;20068;-64
2022/09/20 12:01:31;;;;;;;4.03;0.70;;;18.00;97.50;;;;;;5085714;28;20379;-64
2022/09/20 12:04:23;;;;;;;3.67;0.60;;;18.20;97.40;;;;;;5075682;28;20052;-64
2022/09/20 12:07:00;;;;;;;5.50;0.80;;;18.30;96.60;;;;;;5075369;28;20050;-65
2022/09/20 12:09:34;;;;;;;3.78;0.77;;;18.40;96.00;;;;;;5083482;28;20515;-64
2022/09/20 12:12:21;;;;;;;2.25;0.70;;;18.50;95.50;;;;;;5080113;28;20041;-64
2022/09/20 12:14:58;;;;;;;5.90;0.98;;;18.50;96.20;;;;;;5084812;28;20039;-63
2022/09/20 12:17:45;;;;;;;5.43;0.73;;;18.30;94.60;;;;;;5074641;28;20107;-64
2022/09/20 12:20:41;;;;;;;4.07;0.70;;;18.30;94.80;;;;;;5070462;28;20082;-63
2022/09/20 12:23:39;;;;;;;4.00;0.70;;;18.10;95.90;;;;;;5074031;28;20067;-64
2022/09/20 12:26:19;;;;;;;4.30;0.73;;;17.90;94.70;;;;;;5079797;28;20048;-63
2022/09/20 12:28:57;;;;;;;4.18;0.95;;;17.70;96.20;;;;;;5077624;28;20045;-65
2022/09/20 12:31:30;;;;;;;3.03;0.63;;;17.80;96.30;;;;;;5073289;28;20044;-64
2022/09/20 12:34:03;;;;;;;6.05;1.00;;;17.80;96.30;;;;;;5083333;28;20124;-63
2022/09/20 12:36:35;;;;;;;3.85;0.70;;;17.80;96.40;;;;;;5087276;28;20044;-64
2022/09/20 12:39:12;;;;;;;4.32;0.88;;;17.50;96.10;;;;;;5085111;28;20120;-63
2022/09/20 12:41:56;;;;;;;8.00;0.88;;;17.40;96.10;;;;;;5084639;28;20052;-64
2022/09/20 12:44:38;;;;;;;4.18;0.80;;;17.50;95.20;;;;;;5083067;28;20127;-64
2022/09/20 12:47:05;;;;;;;1.75;0.60;;;18.40;94.60;;;;;;5084988;28;20142;-63
2022/09/20 12:53:00;;;;;;;5.00;0.98;;;19.40;89.00;;;;;;5084486;28;20044;-63
2022/09/20 12:55:28;;;;;;;4.00;0.80;;;19.10;90.70;;;;;;5088707;28;20092;-63
2022/09/20 12:58:13;;;;;;;1.80;0.52;;;19.20;91.20;;;;;;5088957;28;20595;-64
2022/09/20 13:00:58;;;;;;;4.13;0.85;;;19.40;90.90;;;;;;5090247;28;20040;-63
2022/09/20 13:03:40;;;;;;;4.55;0.75;;;19.70;90.90;;;;;;5075938;28;20159;-64
2022/09/20 13:06:07;;;;;;;5.43;0.75;;;19.80;90.80;;;;;;5088279;28;20036;-64
2022/09/20 13:09:00;;;;;;;2.60;0.70;;;19.60;90.90;;;;;;5085662;28;20117;-64
2022/09/20 13:11:35;;;;;;;3.47;0.73;;;19.20;89.70;;;;;;5086255;28;20044;-64
2022/09/20 13:14:21;;;;;;;5.10;1.20;;;18.90;90.80;;;;;;5087585;28;20518;-64
2022/09/20 13:17:12;;;;;;;4.63;0.77;;;18.70;90.70;;;;;;5089960;28;20039;-64
2022/09/20 13:19:46;;;;;;;3.92;0.80;;;18.50;91.10;;;;;;5090768;28;20048;-63
2022/09/20 13:22:23;;;;;;;3.00;0.50;;;18.50;91.00;;;;;;5087583;28;20048;-64
2022/09/20 13:25:01;;;;;;;4.60;0.60;;;18.40;91.50;;;;;;5088569;28;20386;-64
2022/09/20 13:27:33;;;;;;;2.45;0.60;;;18.40;91.20;;;;;;5089440;28;20032;-64
2022/09/20 13:30:13;;;;;;;5.80;0.57;;;18.40;90.40;;;;;;5092163;28;20043;-63
2022/09/20 13:32:41;;;;;;;4.93;1.20;;;18.20;91.20;;;;;;5090079;28;20716;-63
2022/09/20 13:35:12;;;;;;;3.65;0.77;;;18.10;91.30;;;;;;5086618;28;20032;-64
2022/09/20 13:38:00;;;;;;;2.80;0.60;;;17.90;91.50;;;;;;5084990;28;20032;-64
2022/09/20 13:40:43;;;;;;;4.28;0.60;;;17.70;91.50;;;;;;5077302;28;20050;-64
2022/09/20 13:43:24;;;;;;;3.80;0.75;;;17.50;91.00;;;;;;5077349;28;20035;-63
2022/09/20 13:45:55;;;;;;;2.00;0.40;;;17.30;92.20;;;;;;5084454;28;20038;-63
2022/09/20 13:48:24;;;;;;;3.47;0.60;;;17.20;92.10;;;;;;5085506;28;20045;-63
2022/09/20 13:50:50;;;;;;;9.97;0.73;;;17.10;91.90;;;;;;5080561;28;20048;-63
2022/09/20 13:53:17;;;;;;;3.83;0.88;;;17.00;92.30;;;;;;5075470;28;20040;-63
2022/09/20 13:55:44;;;;;;;2.30;0.52;;;16.90;92.50;;;;;;5083404;28;20035;-63
2022/09/20 13:58:28;;;;;;;2.67;0.63;;;16.90;92.80;;;;;;5078411;28;20036;-63
2022/09/20 14:00:57;;;;;;;2.10;0.85;;;16.90;93.10;;;;;;5079984;28;20115;-63
2022/09/20 14:03:25;;;;;;;2.58;0.60;;;16.80;93.10;;;;;;5077647;28;20083;-64